Time;durP1;ratioP1;P1;durP2;ratioP2;P2;SDS_P1;SDS_P2;PMS_P1;PMS_P2;Temp;Humidity;BMP_temperature;BMP_pressure;BME280_temperature;BME280_humidity;BME280_pressure;Samples;Min_cycle;Max_cycle;Signal;HPM_P1;HPM_P2
2021/12/22 00:00:28;;;;;;;7.43;6.37;;;;;;;0.95;76.91;100487.34;5032988;28;20291;-55
2021/12/22 00:02:55;;;;;;;7.23;6.43;;;;;;;0.93;76.11;100483.88;5032766;28;20330;-56
2021/12/22 00:05:26;;;;;;;8.83;6.63;;;;;;;0.94;75.83;100476.25;5032843;28;20280;-56
2021/12/22 00:07:55;;;;;;;9.47;6.73;;;;;;;0.99;76.32;100491.72;5032796;28;20244;-55
2021/12/22 00:10:22;;;;;;;6.30;5.80;;;;;;;0.89;76.35;100484.66;5032707;28;20670;-55
2021/12/22 00:12:51;;;;;;;7.20;6.50;;;;;;;0.72;76.10;100466.31;5032913;28;20189;-57
2021/12/22 00:15:18;;;;;;;7.10;6.30;;;;;;;0.78;76.68;100469.03;5032742;28;20314;-58
2021/12/22 00:17:45;;;;;;;6.53;5.87;;;;;;;0.79;75.52;100455.41;5032831;28;20201;-55
2021/12/22 00:20:14;;;;;;;6.40;5.73;;;;;;;0.91;75.83;100491.50;5032823;28;20301;-57
2021/12/22 00:22:41;;;;;;;6.50;5.90;;;;;;;0.82;75.61;100485.31;5032618;28;20609;-58
2021/12/22 00:25:10;;;;;;;7.23;5.67;;;;;;;0.88;75.99;100493.16;5032849;28;20280;-58
2021/12/22 00:27:37;;;;;;;7.17;6.30;;;;;;;0.90;76.13;100492.38;5032474;28;20193;-56
2021/12/22 00:30:05;;;;;;;7.83;5.97;;;;;;;0.86;75.93;100494.78;5032444;28;20208;-58
2021/12/22 00:32:34;;;;;;;7.70;5.63;;;;;;;0.90;75.13;100504.28;5032496;28;20303;-58
2021/12/22 00:35:02;;;;;;;7.47;5.87;;;;;;;0.67;75.55;100501.13;5032194;28;20287;-60
2021/12/22 00:37:30;;;;;;;7.10;6.37;;;;;;;0.71;76.55;100491.00;5032203;28;20673;-59
2021/12/22 00:39:58;;;;;;;6.77;5.53;;;;;;;0.65;76.11;100498.53;5032237;28;20231;-58
2021/12/22 00:42:27;;;;;;;6.53;5.87;;;;;;;0.57;77.11;100496.56;5032304;28;20678;-59
2021/12/22 00:44:55;;;;;;;9.47;5.50;;;;;;;0.66;76.43;100500.25;5032014;28;20581;-59
2021/12/22 00:47:24;;;;;;;7.40;6.20;;;;;;;0.67;76.18;100491.75;5032669;28;20726;-60
2021/12/22 00:49:51;;;;;;;6.93;5.77;;;;;;;0.55;75.70;100480.34;5031957;28;20200;-59
2021/12/22 00:52:18;;;;;;;10.00;5.73;;;;;;;0.57;75.61;100497.44;5032073;28;20209;-58
2021/12/22 00:54:45;;;;;;;12.30;6.33;;;;;;;0.64;75.75;100499.34;5032162;28;20227;-57
2021/12/22 00:57:15;;;;;;;7.33;5.60;;;;;;;0.70;76.48;100502.03;5031959;28;20207;-57
2021/12/22 00:59:44;;;;;;;13.93;6.13;;;;;;;0.68;76.18;100506.25;5031904;28;20200;-57
2021/12/22 01:02:13;;;;;;;9.60;6.20;;;;;;;0.75;75.57;100504.72;5031800;28;20666;-60
2021/12/22 01:04:41;;;;;;;6.67;6.03;;;;;;;0.66;75.41;100507.91;5031803;28;20277;-56
2021/12/22 01:07:09;;;;;;;7.17;5.97;;;;;;;0.71;75.98;100510.56;5031860;28;20204;-56
2021/12/22 01:09:37;;;;;;;7.00;6.07;;;;;;;0.71;75.81;100508.03;5031779;28;20694;-57
2021/12/22 01:12:06;;;;;;;6.83;5.27;;;;;;;0.77;76.16;100509.88;5031805;28;20674;-57
2021/12/22 01:14:33;;;;;;;5.90;5.23;;;;;;;0.69;75.68;100504.56;5031554;28;20231;-58
2021/12/22 01:17:03;;;;;;;6.30;5.70;;;;;;;0.70;75.17;100512.25;5031437;28;20256;-57
2021/12/22 01:19:38;;;;;;;5.80;5.27;;;;;;;0.67;75.43;100508.78;5031729;28;20627;-58
2021/12/22 01:22:18;;;;;;;8.00;6.20;;;;;;;0.65;76.07;100508.75;5031692;28;20720;-57
2021/12/22 01:24:48;;;;;;;6.53;5.47;;;;;;;0.68;76.08;100508.78;5031631;28;20750;-58
2021/12/22 01:27:21;;;;;;;6.23;5.53;;;;;;;0.59;75.70;100508.56;5031364;28;20288;-56
2021/12/22 01:29:49;;;;;;;5.80;5.20;;;;;;;0.56;75.62;100503.38;5031524;28;20212;-56
2021/12/22 01:32:17;;;;;;;6.87;5.20;;;;;;;0.55;76.32;100509.31;5031459;28;20200;-55
2021/12/22 01:34:44;;;;;;;6.43;5.77;;;;;;;0.55;76.90;100501.66;5031077;28;20320;-55
2021/12/22 01:37:12;;;;;;;6.00;5.40;;;;;;;0.63;77.03;100494.19;5031159;28;20215;-56
2021/12/22 01:39:38;;;;;;;7.40;5.30;;;;;;;0.61;76.56;100496.69;5031081;28;20230;-57
2021/12/22 01:42:06;;;;;;;6.20;5.60;;;;;;;0.54;77.36;100488.84;5031097;28;20203;-57
2021/12/22 01:44:47;;;;;;;8.30;5.60;;;;;;;0.54;77.59;100496.50;5030940;28;20197;-57
2021/12/22 01:50:00;;;;;;;6.20;5.50;;;;;;;0.31;78.14;100491.63;5030966;28;20198;-57
2021/12/22 01:52:28;;;;;;;6.03;5.40;;;;;;;0.29;77.66;100497.50;5030773;28;20672;-57
2021/12/22 01:55:05;;;;;;;5.87;5.37;;;;;;;0.20;78.45;100490.47;5030791;28;20233;-55
2021/12/22 01:57:33;;;;;;;6.77;5.53;;;;;;;0.10;79.66;100493.56;5030295;28;20705;-55
2021/12/22 02:00:02;;;;;;;5.77;5.23;;;;;;;0.04;79.19;100485.72;5030667;28;20207;-57
2021/12/22 02:02:29;;;;;;;5.87;5.37;;;;;;;-0.04;79.57;100467.66;5030401;28;20231;-56
2021/12/22 02:04:56;;;;;;;5.97;5.47;;;;;;;0.08;78.92;100491.78;5030424;28;20283;-55
2021/12/22 02:07:25;;;;;;;8.57;5.87;;;;;;;0.08;79.93;100482.44;5030800;28;20200;-56
2021/12/22 02:10:17;;;;;;;6.50;5.20;;;;;;;0.10;80.13;100485.06;5030605;28;20238;-57
2021/12/22 02:12:48;;;;;;;5.67;5.10;;;;;;;0.16;79.56;100487.75;5030747;28;20280;-57
2021/12/22 02:15:15;;;;;;;5.80;5.27;;;;;;;-0.02;79.70;100445.59;5030303;28;20306;-56
2021/12/22 02:17:42;;;;;;;6.37;5.33;;;;;;;0.21;79.52;100481.97;5030380;28;20289;-55
2021/12/22 02:20:12;;;;;;;6.17;5.57;;;;;;;0.12;79.59;100483.38;5030291;28;20291;-54
2021/12/22 02:22:41;;;;;;;5.90;5.07;;;;;;;0.09;79.29;100485.88;5030398;28;20196;-55
2021/12/22 02:25:15;;;;;;;7.20;5.00;;;;;;;-0.02;79.55;100490.66;5030383;28;20223;-55
2021/12/22 02:27:47;;;;;;;5.40;4.80;;;;;;;-0.03;80.69;100484.69;5030138;28;20265;-55
2021/12/22 02:30:18;;;;;;;5.97;5.37;;;;;;;-0.16;80.33;100491.94;5030136;28;20200;-54
2021/12/22 02:33:08;;;;;;;5.63;4.90;;;;;;;-0.17;80.03;100485.09;5029962;28;20204;-55
2021/12/22 02:35:43;;;;;;;5.10;4.60;;;;;;;-0.15;79.77;100494.53;5029987;28;20227;-56
2021/12/22 02:38:16;;;;;;;6.43;4.90;;;;;;;-0.18;78.85;100479.13;5030081;28;20303;-57
2021/12/22 02:40:44;;;;;;;5.80;4.73;;;;;;;-0.29;80.26;100489.84;5030054;28;20217;-55
2021/12/22 02:43:11;;;;;;;6.67;5.60;;;;;;;-0.37;80.67;100503.22;5030154;28;20280;-55
2021/12/22 02:45:38;;;;;;;5.07;4.57;;;;;;;-0.49;81.02;100494.34;5030491;28;20673;-55
2021/12/22 02:48:06;;;;;;;6.47;5.83;;;;;;;-0.35;81.12;100495.63;5029952;28;20288;-55
2021/12/22 02:50:36;;;;;;;7.83;5.30;;;;;;;-0.58;80.65;100456.69;5029717;28;20205;-55
2021/12/22 02:53:08;;;;;;;6.17;5.50;;;;;;;-0.34;80.58;100483.75;5029962;28;20197;-55
2021/12/22 02:55:46;;;;;;;5.57;4.40;;;;;;;-0.29;80.99;100490.69;5029949;28;20306;-55
2021/12/22 02:58:21;;;;;;;5.77;5.07;;;;;;;-0.39;80.51;100484.47;5030031;28;20304;-56
2021/12/22 03:01:02;;;;;;;6.97;5.10;;;;;;;-0.36;80.21;100486.25;5029897;28;20238;-55
2021/12/22 03:03:44;;;;;;;6.10;5.20;;;;;;;-0.32;80.57;100482.94;5029757;28;20688;-55
2021/12/22 03:06:15;;;;;;;7.67;4.50;;;;;;;-0.34;80.16;100481.19;5029982;28;20201;-56
2021/12/22 03:08:43;;;;;;;5.40;4.73;;;;;;;-0.48;79.38;100489.28;5032081;28;20202;-56
2021/12/22 03:11:10;;;;;;;4.90;4.50;;;;;;;-0.41;78.82;100482.69;5033870;28;20197;-55
2021/12/22 03:13:37;;;;;;;4.43;4.03;;;;;;;-0.25;78.46;100484.88;5034145;28;20653;-55
2021/12/22 03:16:04;;;;;;;6.63;3.90;;;;;;;-0.21;77.80;100489.25;5033890;28;20795;-55
2021/12/22 03:18:32;;;;;;;4.63;4.23;;;;;;;-0.17;77.07;100485.97;5033846;28;20282;-56
2021/12/22 03:21:07;;;;;;;5.57;4.83;;;;;;;-0.23;77.03;100483.25;5033970;28;20666;-55
2021/12/22 03:23:35;;;;;;;4.70;4.20;;;;;;;-0.25;76.51;100486.56;5033576;28;20255;-55
2021/12/22 03:26:03;;;;;;;4.70;4.30;;;;;;;-0.17;76.36;100487.66;5033538;28;20696;-56
2021/12/22 03:28:30;;;;;;;6.60;4.70;;;;;;;-0.17;75.75;100490.22;5033803;28;20200;-56
2021/12/22 03:30:59;;;;;;;5.43;4.90;;;;;;;-0.31;76.03;100486.38;5033588;28;20200;-57
2021/12/22 03:33:26;;;;;;;5.17;4.17;;;;;;;-0.49;76.42;100479.03;5033518;28;20201;-56
2021/12/22 03:35:53;;;;;;;5.33;4.70;;;;;;;-0.36;76.53;100470.94;5033331;28;20225;-56
2021/12/22 03:38:20;;;;;;;5.33;4.80;;;;;;;-0.39;76.35;100487.00;5033398;28;20197;-57
2021/12/22 03:40:47;;;;;;;6.07;4.83;;;;;;;-0.32;76.93;100500.81;5033117;28;20592;-57
2021/12/22 03:43:15;;;;;;;5.10;4.60;;;;;;;-0.26;77.26;100500.13;5033484;28;20684;-55
2021/12/22 03:45:42;;;;;;;4.70;4.30;;;;;;;-0.44;77.46;100495.31;5033157;28;20291;-58
2021/12/22 03:48:09;;;;;;;5.00;4.50;;;;;;;-0.39;76.84;100489.56;5033212;28;20208;-58
2021/12/22 03:50:36;;;;;;;6.07;4.83;;;;;;;-0.34;76.58;100493.94;5033090;28;20657;-58
2021/12/22 03:53:03;;;;;;;5.00;4.53;;;;;;;-0.44;76.74;100482.56;5033055;28;20205;-55
2021/12/22 03:55:30;;;;;;;6.47;4.60;;;;;;;-0.75;77.82;100480.75;5033104;28;20226;-56
2021/12/22 03:57:57;;;;;;;7.80;5.17;;;;;;;-0.57;80.63;100500.88;5033189;28;20215;-56
2021/12/22 04:00:26;;;;;;;5.30;4.80;;;;;;;-0.58;79.25;100506.81;5032794;28;20692;-57
2021/12/22 04:02:53;;;;;;;5.37;4.80;;;;;;;-0.52;78.63;100487.44;5032870;28;20321;-56
2021/12/22 04:05:20;;;;;;;6.90;4.80;;;;;;;-0.47;77.99;100495.25;5032893;28;20281;-56
2021/12/22 04:07:47;;;;;;;6.80;4.90;;;;;;;-0.67;78.33;100465.69;5032098;28;20197;-56
2021/12/22 04:10:21;;;;;;;6.63;5.40;;;;;;;-0.54;79.03;100499.28;5039718;28;20194;-55
2021/12/22 04:12:50;;;;;;;6.30;5.33;;;;;;;-0.46;79.08;100508.06;5032392;28;20201;-54
2021/12/22 04:15:18;;;;;;;7.43;6.23;;;;;;;-0.69;79.40;100506.47;5029920;28;20223;-55
2021/12/22 04:17:46;;;;;;;7.67;5.77;;;;;;;-0.81;80.99;100513.72;5041948;28;20677;-56
2021/12/22 04:20:14;;;;;;;5.80;5.30;;;;;;;-0.84;81.19;100511.94;5037005;28;20212;-57
2021/12/22 04:22:41;;;;;;;10.30;7.17;;;;;;;-0.79;80.91;100520.56;5041055;28;20196;-55
2021/12/22 04:25:09;;;;;;;7.57;6.03;;;;;;;-0.61;81.31;100525.41;5042142;28;20285;-55
2021/12/22 04:27:37;;;;;;;6.13;5.50;;;;;;;-0.73;81.52;100519.91;5040605;28;20194;-56
2021/12/22 04:30:06;;;;;;;7.20;6.07;;;;;;;-0.59;81.00;100520.38;5040534;28;20280;-56
2021/12/22 04:32:33;;;;;;;14.43;9.27;;;;;;;-0.63;80.57;100516.84;5042124;28;20237;-55
2021/12/22 04:35:01;;;;;;;46.77;22.13;;;;;;;-0.74;80.44;100526.69;5040932;28;20559;-56
2021/12/22 04:37:28;;;;;;;21.83;12.87;;;;;;;-0.84;81.03;100529.75;5039993;28;20217;-55
2021/12/22 04:39:55;;;;;;;20.20;11.43;;;;;;;-0.87;81.83;100531.34;5041571;28;20196;-55
2021/12/22 04:42:22;;;;;;;13.33;8.30;;;;;;;-1.00;82.45;100532.59;5041168;28;20208;-56
2021/12/22 04:44:53;;;;;;;17.50;10.87;;;;;;;-0.96;82.64;100536.13;5039640;28;20195;-56
2021/12/22 04:47:20;;;;;;;18.10;10.60;;;;;;;-1.07;83.27;100534.91;5040721;28;20193;-56
2021/12/22 04:49:47;;;;;;;16.07;9.83;;;;;;;-1.07;83.87;100532.34;5039464;28;20198;-56
2021/12/22 04:52:19;;;;;;;13.43;8.53;;;;;;;-1.14;84.93;100536.38;5031962;28;20288;-56
2021/12/22 04:54:51;;;;;;;12.90;7.90;;;;;;;-1.18;84.48;100532.00;5031991;28;20251;-56
2021/12/22 04:57:18;;;;;;;8.67;6.80;;;;;;;-1.23;84.57;100539.47;5024542;28;20221;-56
2021/12/22 04:59:44;;;;;;;11.43;7.70;;;;;;;-1.24;84.47;100547.06;5011319;28;20218;-56
2021/12/22 05:02:11;;;;;;;10.77;7.53;;;;;;;-1.16;84.37;100540.56;5028133;28;20312;-55
2021/12/22 05:04:38;;;;;;;11.07;7.70;;;;;;;-1.15;83.97;100538.06;5051505;28;20227;-56
2021/12/22 05:07:05;;;;;;;10.90;7.23;;;;;;;-1.04;83.46;100537.56;5051489;28;20227;-57
2021/12/22 05:09:34;;;;;;;12.00;7.97;;;;;;;-1.17;83.68;100539.69;5051380;28;20419;-57
2021/12/22 05:12:01;;;;;;;14.60;7.90;;;;;;;-1.19;83.95;100548.97;5050680;28;20226;-57
2021/12/22 05:14:27;;;;;;;10.20;8.30;;;;;;;-1.22;83.72;100551.38;5033620;28;20217;-56
2021/12/22 05:16:59;;;;;;;13.40;8.70;;;;;;;-1.11;83.19;100554.31;5029713;28;20233;-57
2021/12/22 05:19:27;;;;;;;13.10;9.50;;;;;;;-1.11;83.06;100549.22;5029791;28;20244;-57
2021/12/22 05:21:54;;;;;;;16.07;10.00;;;;;;;-1.08;82.76;100548.47;5031080;28;20225;-57
2021/12/22 05:24:22;;;;;;;15.10;9.87;;;;;;;-1.04;83.03;100543.53;5029807;28;20609;-58
2021/12/22 05:26:50;;;;;;;20.67;11.30;;;;;;;-1.05;83.23;100553.66;5030237;28;20227;-56
2021/12/22 05:29:17;;;;;;;26.90;10.87;;;;;;;-1.05;83.26;100551.97;5030626;28;20676;-58
2021/12/22 05:31:44;;;;;;;22.20;10.80;;;;;;;-1.13;83.33;100525.38;5034302;28;20239;-58
2021/12/22 05:34:12;;;;;;;19.87;11.87;;;;;;;-1.04;83.10;100540.97;5050654;28;20225;-57
2021/12/22 05:36:39;;;;;;;21.57;11.13;;;;;;;-1.05;83.84;100553.66;5050795;28;20609;-57
2021/12/22 05:39:06;;;;;;;20.27;12.10;;;;;;;-1.03;83.52;100557.13;5050844;28;20232;-57
2021/12/22 05:41:33;;;;;;;22.57;12.37;;;;;;;-0.98;83.82;100560.69;5031207;28;20337;-56
2021/12/22 05:44:01;;;;;;;22.63;11.70;;;;;;;-1.04;84.39;100557.94;5029751;28;20221;-56
2021/12/22 05:46:28;;;;;;;20.80;11.37;;;;;;;-1.05;84.77;100564.72;5030595;28;20235;-57
2021/12/22 05:48:55;;;;;;;17.43;10.83;;;;;;;-0.97;84.28;100568.38;5030133;28;20231;-56
2021/12/22 05:51:22;;;;;;;21.13;11.83;;;;;;;-1.06;85.01;100572.31;5030370;28;20216;-58
2021/12/22 05:53:49;;;;;;;22.67;12.97;;;;;;;-1.05;85.71;100568.94;5029647;28;20232;-57
2021/12/22 05:56:16;;;;;;;22.97;11.73;;;;;;;-1.04;85.11;100580.88;5029938;28;20610;-57
2021/12/22 05:58:44;;;;;;;18.33;10.83;;;;;;;-1.43;85.13;100520.09;5029778;28;20771;-57
2021/12/22 06:01:13;;;;;;;25.10;16.03;;;;;;;-0.92;85.18;100582.16;5030716;28;20729;-56
2021/12/22 06:03:40;;;;;;;22.70;13.17;;;;;;;-0.95;84.40;100576.97;5050160;28;20262;-55
2021/12/22 06:06:07;;;;;;;21.17;10.83;;;;;;;-1.12;84.02;100590.78;5050470;28;20217;-55
2021/12/22 06:08:33;;;;;;;18.70;10.63;;;;;;;-1.08;84.51;100594.31;5050171;28;20612;-57
2021/12/22 06:11:00;;;;;;;15.87;11.00;;;;;;;-1.10;84.76;100589.16;5050681;28;20706;-57
2021/12/22 06:13:27;;;;;;;16.60;11.10;;;;;;;-1.07;85.04;100584.19;5049549;28;20221;-56
2021/12/22 06:15:54;;;;;;;14.77;9.97;;;;;;;-1.21;84.21;100570.94;5049983;28;20246;-57
2021/12/22 06:18:22;;;;;;;14.33;10.50;;;;;;;-0.96;83.25;100595.59;5050020;28;20220;-55
2021/12/22 06:20:49;;;;;;;24.63;11.83;;;;;;;-0.98;83.06;100573.44;5050094;28;20230;-57
2021/12/22 06:23:16;;;;;;;18.90;11.53;;;;;;;-0.92;82.17;100610.19;5049689;28;20258;-57
2021/12/22 06:25:45;;;;;;;19.73;11.63;;;;;;;-0.96;81.94;100607.47;5050091;28;20303;-56
2021/12/22 06:28:12;;;;;;;24.80;12.43;;;;;;;-0.91;82.18;100611.06;5049170;28;20236;-57
2021/12/22 06:30:39;;;;;;;24.40;14.63;;;;;;;-0.81;82.10;100602.94;5049582;28;20307;-55
2021/12/22 06:33:06;;;;;;;33.17;17.67;;;;;;;-0.94;81.95;100606.72;5036069;28;20612;-55
2021/12/22 06:35:34;;;;;;;28.70;16.40;;;;;;;-1.05;82.40;100599.53;5029787;28;20307;-57
2021/12/22 06:38:01;;;;;;;31.17;17.73;;;;;;;-1.07;81.98;100593.50;5028498;28;20308;-57
2021/12/22 06:40:28;;;;;;;39.60;15.87;;;;;;;-1.02;81.91;100600.50;5028939;28;20231;-57
2021/12/22 06:42:55;;;;;;;33.33;15.83;;;;;;;-1.06;82.14;100585.91;5028337;28;20311;-55
2021/12/22 06:45:22;;;;;;;31.80;17.50;;;;;;;-0.80;82.42;100600.44;5029230;28;20304;-55
2021/12/22 06:47:50;;;;;;;32.90;17.33;;;;;;;-0.61;81.07;100601.03;5029533;28;20615;-57
2021/12/22 06:50:17;;;;;;;26.63;13.73;;;;;;;-0.53;80.10;100602.16;5027989;28;20320;-56
2021/12/22 06:52:45;;;;;;;19.23;12.17;;;;;;;-0.57;80.07;100590.13;5029681;28;20225;-57
2021/12/22 06:55:12;;;;;;;17.30;10.63;;;;;;;-0.46;79.76;100599.00;5029779;28;20243;-55
2021/12/22 06:57:39;;;;;;;14.17;10.37;;;;;;;-0.26;78.67;100602.19;5029270;28;20236;-56
2021/12/22 07:00:09;;;;;;;15.77;9.63;;;;;;;-0.36;78.82;100603.59;5029702;28;20300;-55
2021/12/22 07:02:38;;;;;;;13.33;9.43;;;;;;;-0.29;78.61;100602.06;5041021;28;20727;-56
2021/12/22 07:05:06;;;;;;;15.60;9.87;;;;;;;-0.29;78.03;100597.84;5049337;28;20235;-54
2021/12/22 07:07:33;;;;;;;14.67;9.40;;;;;;;-0.28;77.71;100568.97;5049702;28;20242;-56
2021/12/22 07:10:01;;;;;;;13.07;9.97;;;;;;;-0.15;77.58;100582.97;5049364;28;20225;-57
2021/12/22 07:12:28;;;;;;;19.63;9.70;;;;;;;-0.10;77.07;100599.28;5049061;28;20735;-56
2021/12/22 07:14:55;;;;;;;16.60;10.70;;;;;;;-0.01;76.61;100610.66;5049339;28;20233;-58
2021/12/22 07:17:22;;;;;;;15.30;9.67;;;;;;;0.04;76.29;100609.91;5049184;28;20236;-57
2021/12/22 07:19:50;;;;;;;19.23;10.23;;;;;;;0.17;75.63;100605.25;5049198;28;20221;-57
2021/12/22 07:22:17;;;;;;;16.93;9.40;;;;;;;0.34;75.27;100604.03;5049289;28;20314;-57
2021/12/22 07:24:44;;;;;;;19.90;11.50;;;;;;;0.28;75.25;100577.47;5049222;28;20223;-58
2021/12/22 07:27:12;;;;;;;19.77;10.73;;;;;;;0.43;75.80;100606.03;5038154;28;20607;-56
2021/12/22 07:29:41;;;;;;;22.23;12.30;;;;;;;0.11;76.41;100578.69;5029430;28;20224;-57
2021/12/22 07:32:09;;;;;;;25.07;13.60;;;;;;;0.34;75.86;100613.41;5036837;28;20258;-56
2021/12/22 07:34:47;;;;;;;19.00;11.47;;;;;;;0.42;75.70;100616.19;5040169;28;20312;-55
2021/12/22 07:37:19;;;;;;;17.37;12.07;;;;;;;0.49;75.94;100611.31;5029102;28;20235;-56
2021/12/22 07:39:46;;;;;;;16.03;10.53;;;;;;;0.61;75.22;100619.31;5029083;28;20321;-57
2021/12/22 07:42:14;;;;;;;15.10;10.57;;;;;;;0.59;74.57;100622.66;5028863;28;20714;-56
2021/12/22 07:44:41;;;;;;;15.73;10.90;;;;;;;0.56;74.30;100626.00;5029117;28;20224;-57
2021/12/22 07:47:08;;;;;;;21.37;10.83;;;;;;;0.53;75.23;100625.03;5029520;28;20238;-55
2021/12/22 07:49:35;;;;;;;14.83;10.20;;;;;;;0.56;75.44;100620.91;5029076;28;20235;-54
2021/12/22 07:52:02;;;;;;;17.93;11.23;;;;;;;0.67;76.01;100624.63;5029397;28;20231;-56
2021/12/22 07:54:29;;;;;;;21.90;12.17;;;;;;;0.74;75.30;100620.53;5029395;28;20308;-55
2021/12/22 07:56:56;;;;;;;25.40;11.63;;;;;;;0.81;75.50;100627.53;5032358;28;20236;-55
2021/12/22 07:59:25;;;;;;;18.43;12.40;;;;;;;0.65;76.46;100607.50;5033459;28;20234;-55
2021/12/22 08:01:52;;;;;;;19.23;11.43;;;;;;;0.74;75.53;100625.66;5038348;28;20744;-55
2021/12/22 08:04:18;;;;;;;18.70;11.33;;;;;;;0.61;74.95;100629.53;5052306;28;20241;-57
2021/12/22 08:06:45;;;;;;;18.30;11.67;;;;;;;0.50;75.38;100630.91;5052548;28;20372;-57
2021/12/22 08:09:12;;;;;;;17.53;11.63;;;;;;;0.56;75.24;100630.25;5052680;28;20227;-57
2021/12/22 08:11:39;;;;;;;19.17;11.30;;;;;;;0.79;74.79;100636.03;5051951;28;20305;-57
2021/12/22 08:14:06;;;;;;;17.57;11.27;;;;;;;0.92;75.19;100635.50;5052501;28;20228;-56
2021/12/22 08:16:35;;;;;;;14.80;10.53;;;;;;;0.91;74.28;100629.53;5040034;28;20228;-56
2021/12/22 08:19:01;;;;;;;17.00;10.50;;;;;;;0.86;73.91;100625.13;5032674;28;20627;-57
2021/12/22 08:21:28;;;;;;;24.03;12.17;;;;;;;0.88;74.78;100628.59;5032060;28;20264;-57
2021/12/22 08:23:55;;;;;;;21.37;11.17;;;;;;;0.95;74.63;100631.34;5032403;28;20225;-55
2021/12/22 08:26:22;;;;;;;20.00;12.37;;;;;;;0.90;74.53;100627.81;5031651;28;20307;-55
2021/12/22 08:28:49;;;;;;;16.57;11.70;;;;;;;0.82;75.02;100628.41;5032304;28;20221;-55
2021/12/22 08:31:16;;;;;;;20.10;12.27;;;;;;;0.89;74.82;100636.31;5032351;28;20579;-56
2021/12/22 08:33:46;;;;;;;25.73;12.50;;;;;;;0.90;75.33;100617.59;5032259;28;20225;-56
2021/12/22 08:39:00;;;;;;;24.90;13.67;;;;;;;0.84;76.01;100631.88;5032305;28;20232;-56
2021/12/22 08:41:30;;;;;;;18.87;12.67;;;;;;;0.93;76.55;100627.03;5031328;28;20319;-56
2021/12/22 08:43:58;;;;;;;25.07;13.37;;;;;;;0.77;76.36;100645.31;5032101;28;20304;-56
2021/12/22 08:46:26;;;;;;;22.53;12.00;;;;;;;0.66;76.67;100615.22;5031816;28;20756;-56
2021/12/22 08:48:55;;;;;;;19.50;11.37;;;;;;;0.86;77.05;100641.34;5031742;28;20227;-56
2021/12/22 08:51:22;;;;;;;19.33;11.10;;;;;;;0.84;77.00;100637.00;5029642;28;20239;-55
2021/12/22 08:53:49;;;;;;;20.90;11.40;;;;;;;0.84;77.15;100624.22;5030863;28;20731;-56
2021/12/22 08:56:16;;;;;;;16.07;10.43;;;;;;;0.99;76.99;100624.66;5031172;28;20221;-56
2021/12/22 08:58:43;;;;;;;19.20;10.73;;;;;;;1.03;76.13;100626.44;5031451;28;20233;-57
2021/12/22 09:01:10;;;;;;;13.70;10.17;;;;;;;1.00;75.59;100622.13;5031496;28;20225;-61
2021/12/22 09:03:37;;;;;;;15.67;9.90;;;;;;;1.13;75.70;100622.47;5011649;28;20269;-56
2021/12/22 09:06:06;;;;;;;14.77;10.33;;;;;;;1.06;75.30;100623.97;5011602;28;20225;-56
2021/12/22 09:08:33;;;;;;;17.07;10.83;;;;;;;1.06;76.30;100629.97;5011939;28;20604;-55
2021/12/22 09:11:00;;;;;;;17.33;10.57;;;;;;;1.20;75.46;100625.22;5011290;28;20644;-55
2021/12/22 09:13:27;;;;;;;19.67;10.83;;;;;;;1.26;74.12;100612.59;5011484;28;20217;-54
2021/12/22 09:15:54;;;;;;;14.17;10.50;;;;;;;1.31;74.18;100615.28;5011651;28;20225;-54
2021/12/22 09:18:23;;;;;;;20.47;10.87;;;;;;;1.26;74.89;100621.94;5011210;28;20624;-55
2021/12/22 09:20:50;;;;;;;21.60;10.47;;;;;;;1.23;75.00;100612.53;5011546;28;20226;-55
2021/12/22 09:23:18;;;;;;;13.83;10.00;;;;;;;1.40;73.81;100613.81;5011344;28;20305;-55
2021/12/22 09:25:45;;;;;;;18.37;9.60;;;;;;;1.53;73.58;100614.13;5011216;28;20225;-55
2021/12/22 09:28:13;;;;;;;14.43;9.50;;;;;;;1.56;72.98;100609.09;5011231;28;20304;-55
2021/12/22 09:30:40;;;;;;;12.20;9.73;;;;;;;1.65;73.01;100604.19;5011347;28;20729;-55
2021/12/22 09:33:11;;;;;;;18.50;9.53;;;;;;;1.56;72.64;100604.84;5042921;28;20239;-55
2021/12/22 09:35:39;;;;;;;12.47;8.70;;;;;;;1.58;72.13;100600.59;5051016;28;20224;-55
2021/12/22 09:38:06;;;;;;;14.50;8.63;;;;;;;1.73;71.00;100595.00;5050665;28;20243;-56
2021/12/22 09:40:35;;;;;;;10.70;8.07;;;;;;;1.68;70.93;100587.22;5050763;28;20772;-55
2021/12/22 09:43:02;;;;;;;11.17;8.23;;;;;;;1.80;70.32;100581.53;5050670;28;20220;-58
2021/12/22 09:45:30;;;;;;;19.80;9.80;;;;;;;1.95;69.85;100573.31;5050541;28;20303;-56
2021/12/22 09:48:21;;;;;;;13.33;9.30;;;;;;;1.90;69.95;100574.94;5050851;28;20230;-57
2021/12/22 09:52:15;;;;;;;12.07;8.40;;;;;;;1.88;70.15;100576.59;5050794;28;20274;-57
2021/12/22 09:53:44;;;;;;;12.57;9.00;;;;;;;1.90;69.49;100578.34;5050271;28;20611;-56
2021/12/22 09:56:14;;;;;;;17.00;9.80;;;;;;;1.95;70.52;100570.75;5049869;28;20221;-56
2021/12/22 09:58:43;;;;;;;15.70;9.83;;;;;;;1.92;70.09;100561.31;5050295;28;20229;-55
2021/12/22 10:01:10;;;;;;;13.17;9.97;;;;;;;1.99;70.53;100563.19;5050363;28;20320;-56
2021/12/22 10:03:38;;;;;;;14.67;9.47;;;;;;;2.01;70.02;100574.34;5010447;28;20270;-56
2021/12/22 10:06:05;;;;;;;11.00;9.07;;;;;;;2.00;69.36;100541.88;5010745;28;20225;-55
2021/12/22 10:08:32;;;;;;;13.13;9.87;;;;;;;2.15;70.44;100565.25;5010354;28;20227;-56
2021/12/22 10:11:06;;;;;;;12.57;8.87;;;;;;;1.95;69.48;100565.63;5010166;28;20233;-57
2021/12/22 10:13:35;;;;;;;12.03;8.90;;;;;;;2.07;70.98;100560.81;5010597;28;20225;-55
2021/12/22 10:16:11;;;;;;;14.90;9.10;;;;;;;2.27;73.23;100563.78;5010650;28;20308;-58
2021/12/22 10:18:38;;;;;;;14.37;9.00;;;;;;;2.32;70.35;100562.19;5009706;28;20352;-56
2021/12/22 10:21:11;;;;;;;12.97;9.30;;;;;;;2.39;69.53;100561.47;5010742;28;20748;-58
2021/12/22 10:23:42;;;;;;;12.63;9.43;;;;;;;2.50;68.38;100555.75;5010329;28;20253;-56
2021/12/22 10:26:10;;;;;;;15.73;9.87;;;;;;;2.55;69.31;100554.16;5009821;28;20317;-55
2021/12/22 10:28:53;;;;;;;15.03;9.60;;;;;;;2.60;70.30;100553.38;5010161;28;20313;-56
2021/12/22 10:31:23;;;;;;;12.33;9.30;;;;;;;2.58;71.05;100548.22;5012642;28;20222;-55
2021/12/22 10:33:50;;;;;;;11.07;8.87;;;;;;;2.60;68.18;100554.22;5049891;28;20221;-55
2021/12/22 10:36:20;;;;;;;12.07;9.37;;;;;;;2.65;68.84;100546.63;5050004;28;20221;-55
2021/12/22 10:38:53;;;;;;;13.40;9.37;;;;;;;2.63;68.19;100546.59;5049636;28;20273;-57
2021/12/22 10:41:21;;;;;;;12.03;9.40;;;;;;;2.65;67.95;100552.63;5049236;28;20726;-58
2021/12/22 10:43:52;;;;;;;10.60;8.80;;;;;;;2.50;68.03;100529.25;5049560;28;20232;-60
2021/12/22 10:46:27;;;;;;;10.77;8.90;;;;;;;2.62;67.62;100542.31;5049965;28;20658;-57
2021/12/22 10:49:20;;;;;;;12.07;8.17;;;;;;;2.48;66.94;100526.66;5050062;28;20607;-60
2021/12/22 10:51:56;;;;;;;8.63;7.73;;;;;;;2.63;66.88;100541.47;5049770;28;20225;-57
2021/12/22 10:54:33;;;;;;;8.77;7.97;;;;;;;2.67;65.58;100539.84;5049540;28;20231;-56
2021/12/22 10:57:01;;;;;;;10.73;8.27;;;;;;;2.66;66.08;100520.19;5049323;28;20221;-58
2021/12/22 10:59:40;;;;;;;11.93;8.77;;;;;;;2.62;66.17;100521.81;5049502;28;20238;-57
2021/12/22 11:02:09;;;;;;;10.70;8.50;;;;;;;2.65;65.76;100510.75;5041603;28;20225;-57
2021/12/22 11:04:43;;;;;;;15.57;8.90;;;;;;;2.62;66.02;100508.13;5029371;28;20224;-58
2021/12/22 11:07:15;;;;;;;12.60;8.97;;;;;;;2.57;66.83;100496.94;5029836;28;20303;-57
2021/12/22 11:09:42;;;;;;;11.37;8.80;;;;;;;2.75;66.38;100500.69;5029222;28;20611;-56
2021/12/22 11:12:13;;;;;;;12.97;8.87;;;;;;;2.87;66.19;100497.50;5029790;28;20754;-55
2021/12/22 11:14:46;;;;;;;10.70;7.83;;;;;;;2.82;65.38;100499.13;5029399;28;20240;-55
2021/12/22 11:17:18;;;;;;;16.10;8.37;;;;;;;2.93;65.44;100493.31;5029388;28;20601;-55
2021/12/22 11:19:54;;;;;;;17.67;8.07;;;;;;;2.94;65.31;100473.69;5029506;28;20705;-55
2021/12/22 11:22:26;;;;;;;10.83;7.97;;;;;;;2.93;65.05;100495.88;5029474;28;20256;-56
2021/12/22 11:24:55;;;;;;;12.90;7.63;;;;;;;2.77;65.28;100486.22;5029028;28;20218;-56
2021/12/22 11:27:24;;;;;;;9.17;7.27;;;;;;;2.96;65.43;100496.78;5029408;28;20317;-56
2021/12/22 11:29:55;;;;;;;12.03;8.27;;;;;;;2.85;64.67;100479.50;5030104;28;20230;-56
2021/12/22 11:32:23;;;;;;;11.47;7.30;;;;;;;2.80;64.06;100493.97;5043034;28;20228;-56
2021/12/22 11:34:52;;;;;;;9.53;7.63;;;;;;;2.88;64.61;100492.41;5053065;28;20231;-56